sensor_id;sensor_type;location;lat;lon;timestamp;P1;durP1;ratioP1;P2;durP2;ratioP2
54945;SDS011;40846;44.788;20.486;2023-04-24T00:01:17;7.18;;;3.10;;
54945;SDS011;40846;44.788;20.486;2023-04-24T00:03:45;9.18;;;3.20;;
54945;SDS011;40846;44.788;20.486;2023-04-24T00:06:11;9.38;;;4.07;;
54945;SDS011;40846;44.788;20.486;2023-04-24T00:08:37;6.43;;;3.20;;
54945;SDS011;40846;44.788;20.486;2023-04-24T00:11:05;6.32;;;3.38;;
54945;SDS011;40846;44.788;20.486;2023-04-24T00:16:51;9.55;;;4.07;;
54945;SDS011;40846;44.788;20.486;2023-04-24T00:19:59;7.25;;;3.42;;
54945;SDS011;40846;44.788;20.486;2023-04-24T00:22:26;6.70;;;3.55;;
54945;SDS011;40846;44.788;20.486;2023-04-24T00:24:52;8.38;;;3.80;;
54945;SDS011;40846;44.788;20.486;2023-04-24T00:27:19;7.18;;;4.45;;
54945;SDS011;40846;44.788;20.486;2023-04-24T00:29:46;5.97;;;3.63;;
54945;SDS011;40846;44.788;20.486;2023-04-24T00:32:12;13.70;;;3.67;;
54945;SDS011;40846;44.788;20.486;2023-04-24T00:34:39;7.88;;;3.95;;
54945;SDS011;40846;44.788;20.486;2023-04-24T00:37:05;12.45;;;4.03;;
54945;SDS011;40846;44.788;20.486;2023-04-24T00:39:31;8.05;;;3.15;;
54945;SDS011;40846;44.788;20.486;2023-04-24T00:41:57;8.43;;;4.10;;
54945;SDS011;40846;44.788;20.486;2023-04-24T00:44:24;12.13;;;3.67;;
54945;SDS011;40846;44.788;20.486;2023-04-24T00:46:51;12.40;;;4.10;;
54945;SDS011;40846;44.788;20.486;2023-04-24T00:49:22;11.57;;;4.10;;
54945;SDS011;40846;44.788;20.486;2023-04-24T00:51:49;9.15;;;3.70;;
54945;SDS011;40846;44.788;20.486;2023-04-24T00:54:16;7.72;;;3.83;;
54945;SDS011;40846;44.788;20.486;2023-04-24T00:56:42;13.60;;;3.63;;
54945;SDS011;40846;44.788;20.486;2023-04-24T00:59:08;7.50;;;3.72;;
54945;SDS011;40846;44.788;20.486;2023-04-24T01:01:34;10.93;;;4.15;;
54945;SDS011;40846;44.788;20.486;2023-04-24T01:04:00;5.70;;;3.28;;
54945;SDS011;40846;44.788;20.486;2023-04-24T01:06:31;6.00;;;3.50;;
54945;SDS011;40846;44.788;20.486;2023-04-24T01:09:11;11.25;;;4.18;;
54945;SDS011;40846;44.788;20.486;2023-04-24T01:11:55;12.93;;;3.72;;
54945;SDS011;40846;44.788;20.486;2023-04-24T01:14:35;18.70;;;4.47;;
54945;SDS011;40846;44.788;20.486;2023-04-24T01:17:14;10.55;;;4.20;;
54945;SDS011;40846;44.788;20.486;2023-04-24T01:19:40;7.55;;;3.92;;
54945;SDS011;40846;44.788;20.486;2023-04-24T01:22:15;10.68;;;3.92;;
54945;SDS011;40846;44.788;20.486;2023-04-24T01:24:42;12.77;;;3.75;;
54945;SDS011;40846;44.788;20.486;2023-04-24T01:27:09;13.20;;;4.05;;
54945;SDS011;40846;44.788;20.486;2023-04-24T01:29:35;7.93;;;4.05;;
54945;SDS011;40846;44.788;20.486;2023-04-24T01:32:02;6.68;;;4.13;;
54945;SDS011;40846;44.788;20.486;2023-04-24T01:34:28;11.93;;;3.92;;
54945;SDS011;40846;44.788;20.486;2023-04-24T01:36:54;12.95;;;4.07;;
54945;SDS011;40846;44.788;20.486;2023-04-24T01:39:21;13.75;;;4.78;;
54945;SDS011;40846;44.788;20.486;2023-04-24T01:41:53;8.18;;;3.97;;
54945;SDS011;40846;44.788;20.486;2023-04-24T01:44:20;11.48;;;4.15;;
54945;SDS011;40846;44.788;20.486;2023-04-24T01:46:51;10.98;;;4.13;;
54945;SDS011;40846;44.788;20.486;2023-04-24T01:49:18;7.88;;;4.78;;
54945;SDS011;40846;44.788;20.486;2023-04-24T01:51:48;15.57;;;5.15;;
54945;SDS011;40846;44.788;20.486;2023-04-24T01:54:14;9.00;;;5.20;;
54945;SDS011;40846;44.788;20.486;2023-04-24T01:56:40;10.77;;;5.07;;
54945;SDS011;40846;44.788;20.486;2023-04-24T01:59:10;9.65;;;4.88;;
54945;SDS011;40846;44.788;20.486;2023-04-24T02:01:37;14.15;;;4.97;;
54945;SDS011;40846;44.788;20.486;2023-04-24T02:04:06;13.68;;;5.85;;
54945;SDS011;40846;44.788;20.486;2023-04-24T02:06:33;8.30;;;5.35;;
54945;SDS011;40846;44.788;20.486;2023-04-24T02:08:59;9.60;;;5.28;;
54945;SDS011;40846;44.788;20.486;2023-04-24T02:11:26;8.38;;;5.05;;
54945;SDS011;40846;44.788;20.486;2023-04-24T02:13:52;14.15;;;5.38;;
54945;SDS011;40846;44.788;20.486;2023-04-24T02:16:18;9.60;;;4.90;;
54945;SDS011;40846;44.788;20.486;2023-04-24T02:18:44;9.10;;;5.32;;
54945;SDS011;40846;44.788;20.486;2023-04-24T02:21:12;8.02;;;5.28;;
54945;SDS011;40846;44.788;20.486;2023-04-24T02:23:46;10.77;;;5.60;;
54945;SDS011;40846;44.788;20.486;2023-04-24T02:26:12;9.88;;;5.63;;
54945;SDS011;40846;44.788;20.486;2023-04-24T02:32:04;9.32;;;5.55;;
54945;SDS011;40846;44.788;20.486;2023-04-24T02:34:30;13.13;;;5.15;;
54945;SDS011;40846;44.788;20.486;2023-04-24T02:36:56;13.75;;;5.30;;
54945;SDS011;40846;44.788;20.486;2023-04-24T02:39:22;8.30;;;5.05;;
54945;SDS011;40846;44.788;20.486;2023-04-24T02:41:48;18.55;;;6.03;;
54945;SDS011;40846;44.788;20.486;2023-04-24T02:44:13;11.18;;;5.22;;
54945;SDS011;40846;44.788;20.486;2023-04-24T02:46:39;10.23;;;4.40;;
54945;SDS011;40846;44.788;20.486;2023-04-24T02:49:08;13.50;;;5.72;;
54945;SDS011;40846;44.788;20.486;2023-04-24T02:51:33;16.55;;;5.78;;
54945;SDS011;40846;44.788;20.486;2023-04-24T02:53:59;12.20;;;5.13;;
54945;SDS011;40846;44.788;20.486;2023-04-24T02:56:25;10.30;;;5.18;;
54945;SDS011;40846;44.788;20.486;2023-04-24T02:58:53;11.40;;;5.80;;
54945;SDS011;40846;44.788;20.486;2023-04-24T03:01:31;7.97;;;5.03;;
54945;SDS011;40846;44.788;20.486;2023-04-24T03:04:43;11.30;;;5.00;;
54945;SDS011;40846;44.788;20.486;2023-04-24T03:07:09;11.30;;;5.88;;
54945;SDS011;40846;44.788;20.486;2023-04-24T03:09:35;13.00;;;4.97;;
54945;SDS011;40846;44.788;20.486;2023-04-24T03:12:01;12.38;;;5.05;;
54945;SDS011;40846;44.788;20.486;2023-04-24T03:14:28;11.70;;;4.72;;
54945;SDS011;40846;44.788;20.486;2023-04-24T03:16:56;10.60;;;4.90;;
54945;SDS011;40846;44.788;20.486;2023-04-24T03:22:27;8.32;;;4.75;;
54945;SDS011;40846;44.788;20.486;2023-04-24T03:24:54;14.10;;;5.00;;
54945;SDS011;40846;44.788;20.486;2023-04-24T03:27:21;9.75;;;5.00;;
54945;SDS011;40846;44.788;20.486;2023-04-24T03:29:47;11.48;;;5.25;;
54945;SDS011;40846;44.788;20.486;2023-04-24T03:32:16;8.95;;;4.40;;
54945;SDS011;40846;44.788;20.486;2023-04-24T03:34:54;14.23;;;5.50;;
54945;SDS011;40846;44.788;20.486;2023-04-24T03:37:20;11.70;;;5.50;;
54945;SDS011;40846;44.788;20.486;2023-04-24T03:39:46;12.25;;;4.68;;
54945;SDS011;40846;44.788;20.486;2023-04-24T03:42:12;11.65;;;4.72;;
54945;SDS011;40846;44.788;20.486;2023-04-24T03:44:38;10.70;;;4.50;;
54945;SDS011;40846;44.788;20.486;2023-04-24T03:47:04;11.68;;;5.15;;
54945;SDS011;40846;44.788;20.486;2023-04-24T03:49:31;15.60;;;5.10;;
54945;SDS011;40846;44.788;20.486;2023-04-24T03:51:57;14.43;;;4.43;;
54945;SDS011;40846;44.788;20.486;2023-04-24T03:54:26;14.52;;;4.57;;
54945;SDS011;40846;44.788;20.486;2023-04-24T03:57:02;8.00;;;4.72;;
54945;SDS011;40846;44.788;20.486;2023-04-24T03:59:33;8.15;;;4.25;;
54945;SDS011;40846;44.788;20.486;2023-04-24T04:02:01;6.63;;;4.43;;
54945;SDS011;40846;44.788;20.486;2023-04-24T04:04:37;7.38;;;4.53;;
54945;SDS011;40846;44.788;20.486;2023-04-24T04:07:05;13.77;;;4.53;;
54945;SDS011;40846;44.788;20.486;2023-04-24T04:09:32;10.20;;;4.90;;
54945;SDS011;40846;44.788;20.486;2023-04-24T04:12:00;14.65;;;4.93;;
54945;SDS011;40846;44.788;20.486;2023-04-24T04:14:27;8.02;;;4.28;;
54945;SDS011;40846;44.788;20.486;2023-04-24T04:16:53;9.40;;;4.90;;
54945;SDS011;40846;44.788;20.486;2023-04-24T04:19:19;14.18;;;5.45;;
54945;SDS011;40846;44.788;20.486;2023-04-24T04:21:45;8.50;;;5.28;;
54945;SDS011;40846;44.788;20.486;2023-04-24T04:24:15;9.38;;;5.28;;
54945;SDS011;40846;44.788;20.486;2023-04-24T04:26:48;16.35;;;5.57;;
54945;SDS011;40846;44.788;20.486;2023-04-24T04:29:23;11.00;;;5.70;;
54945;SDS011;40846;44.788;20.486;2023-04-24T04:32:10;10.85;;;5.97;;
54945;SDS011;40846;44.788;20.486;2023-04-24T04:34:37;17.25;;;6.63;;
54945;SDS011;40846;44.788;20.486;2023-04-24T04:37:05;13.57;;;6.53;;
54945;SDS011;40846;44.788;20.486;2023-04-24T04:39:31;12.07;;;6.13;;
54945;SDS011;40846;44.788;20.486;2023-04-24T04:41:57;22.50;;;6.32;;
54945;SDS011;40846;44.788;20.486;2023-04-24T04:44:23;13.05;;;7.32;;
54945;SDS011;40846;44.788;20.486;2023-04-24T04:46:49;18.80;;;6.65;;
54945;SDS011;40846;44.788;20.486;2023-04-24T04:49:18;16.92;;;6.15;;
54945;SDS011;40846;44.788;20.486;2023-04-24T04:51:46;13.23;;;5.78;;
54945;SDS011;40846;44.788;20.486;2023-04-24T04:54:12;13.98;;;5.65;;
54945;SDS011;40846;44.788;20.486;2023-04-24T04:56:37;17.48;;;5.28;;
54945;SDS011;40846;44.788;20.486;2023-04-24T04:59:03;9.90;;;5.22;;
54945;SDS011;40846;44.788;20.486;2023-04-24T05:01:29;9.23;;;5.32;;
54945;SDS011;40846;44.788;20.486;2023-04-24T05:03:55;10.85;;;4.82;;
54945;SDS011;40846;44.788;20.486;2023-04-24T05:06:21;13.43;;;5.13;;
54945;SDS011;40846;44.788;20.486;2023-04-24T05:08:52;11.88;;;5.93;;
54945;SDS011;40846;44.788;20.486;2023-04-24T05:11:22;11.05;;;5.38;;
54945;SDS011;40846;44.788;20.486;2023-04-24T05:13:48;10.93;;;4.85;;
54945;SDS011;40846;44.788;20.486;2023-04-24T05:16:17;9.43;;;4.85;;
54945;SDS011;40846;44.788;20.486;2023-04-24T05:19:01;15.63;;;5.05;;
54945;SDS011;40846;44.788;20.486;2023-04-24T05:21:42;18.63;;;5.53;;
54945;SDS011;40846;44.788;20.486;2023-04-24T05:24:35;22.17;;;6.00;;
54945;SDS011;40846;44.788;20.486;2023-04-24T05:27:07;13.45;;;5.30;;
54945;SDS011;40846;44.788;20.486;2023-04-24T05:29:53;17.02;;;6.30;;
54945;SDS011;40846;44.788;20.486;2023-04-24T05:32:19;11.48;;;5.93;;
54945;SDS011;40846;44.788;20.486;2023-04-24T05:34:45;11.75;;;5.97;;
54945;SDS011;40846;44.788;20.486;2023-04-24T05:37:12;19.30;;;6.45;;
54945;SDS011;40846;44.788;20.486;2023-04-24T05:39:40;20.10;;;7.50;;
54945;SDS011;40846;44.788;20.486;2023-04-24T05:42:09;12.03;;;6.03;;
54945;SDS011;40846;44.788;20.486;2023-04-24T05:44:37;18.25;;;7.80;;
54945;SDS011;40846;44.788;20.486;2023-04-24T05:49:59;16.40;;;6.03;;
54945;SDS011;40846;44.788;20.486;2023-04-24T05:52:37;9.85;;;6.18;;
54945;SDS011;40846;44.788;20.486;2023-04-24T05:55:03;16.17;;;6.05;;
54945;SDS011;40846;44.788;20.486;2023-04-24T05:57:29;13.15;;;6.80;;
54945;SDS011;40846;44.788;20.486;2023-04-24T05:59:55;15.98;;;7.53;;
54945;SDS011;40846;44.788;20.486;2023-04-24T06:02:22;18.52;;;6.53;;
54945;SDS011;40846;44.788;20.486;2023-04-24T06:04:48;15.68;;;6.20;;
54945;SDS011;40846;44.788;20.486;2023-04-24T06:07:14;22.33;;;7.72;;
54945;SDS011;40846;44.788;20.486;2023-04-24T06:09:49;13.77;;;7.03;;
54945;SDS011;40846;44.788;20.486;2023-04-24T06:12:15;12.30;;;6.38;;
54945;SDS011;40846;44.788;20.486;2023-04-24T06:14:41;13.43;;;6.72;;
54945;SDS011;40846;44.788;20.486;2023-04-24T06:17:07;21.70;;;7.15;;
54945;SDS011;40846;44.788;20.486;2023-04-24T06:19:43;14.27;;;6.60;;
54945;SDS011;40846;44.788;20.486;2023-04-24T06:22:09;12.77;;;6.97;;
54945;SDS011;40846;44.788;20.486;2023-04-24T06:24:35;9.25;;;6.25;;
54945;SDS011;40846;44.788;20.486;2023-04-24T06:27:01;12.32;;;6.75;;
54945;SDS011;40846;44.788;20.486;2023-04-24T06:29:27;10.98;;;6.32;;
54945;SDS011;40846;44.788;20.486;2023-04-24T06:31:53;9.98;;;6.13;;
54945;SDS011;40846;44.788;20.486;2023-04-24T06:34:19;9.23;;;6.15;;
54945;SDS011;40846;44.788;20.486;2023-04-24T06:36:46;13.18;;;6.60;;
54945;SDS011;40846;44.788;20.486;2023-04-24T06:39:28;15.70;;;7.30;;
54945;SDS011;40846;44.788;20.486;2023-04-24T06:41:54;9.88;;;6.00;;
54945;SDS011;40846;44.788;20.486;2023-04-24T06:44:20;12.13;;;6.35;;
54945;SDS011;40846;44.788;20.486;2023-04-24T06:46:46;25.17;;;6.68;;
54945;SDS011;40846;44.788;20.486;2023-04-24T06:49:18;17.25;;;6.28;;
54945;SDS011;40846;44.788;20.486;2023-04-24T06:51:45;12.57;;;7.18;;
54945;SDS011;40846;44.788;20.486;2023-04-24T06:54:15;14.15;;;7.13;;
54945;SDS011;40846;44.788;20.486;2023-04-24T06:56:50;17.98;;;6.72;;
54945;SDS011;40846;44.788;20.486;2023-04-24T06:59:17;12.63;;;6.38;;
54945;SDS011;40846;44.788;20.486;2023-04-24T07:01:42;12.77;;;6.57;;
54945;SDS011;40846;44.788;20.486;2023-04-24T07:04:16;11.90;;;6.88;;
54945;SDS011;40846;44.788;20.486;2023-04-24T07:06:47;11.68;;;6.80;;
54945;SDS011;40846;44.788;20.486;2023-04-24T07:09:19;18.10;;;7.15;;
54945;SDS011;40846;44.788;20.486;2023-04-24T07:11:47;14.00;;;7.13;;
54945;SDS011;40846;44.788;20.486;2023-04-24T07:14:16;15.93;;;7.32;;
54945;SDS011;40846;44.788;20.486;2023-04-24T07:16:42;13.15;;;6.55;;
54945;SDS011;40846;44.788;20.486;2023-04-24T07:19:09;15.77;;;7.60;;
54945;SDS011;40846;44.788;20.486;2023-04-24T07:21:35;17.98;;;7.53;;
54945;SDS011;40846;44.788;20.486;2023-04-24T07:24:01;10.80;;;6.55;;
54945;SDS011;40846;44.788;20.486;2023-04-24T07:26:28;12.35;;;6.60;;
54945;SDS011;40846;44.788;20.486;2023-04-24T07:28:56;11.90;;;6.40;;
54945;SDS011;40846;44.788;20.486;2023-04-24T07:31:33;15.00;;;7.00;;
54945;SDS011;40846;44.788;20.486;2023-04-24T07:34:02;8.57;;;5.85;;
54945;SDS011;40846;44.788;20.486;2023-04-24T07:36:31;11.77;;;6.28;;
54945;SDS011;40846;44.788;20.486;2023-04-24T07:39:06;16.08;;;7.43;;
54945;SDS011;40846;44.788;20.486;2023-04-24T07:41:38;12.13;;;5.90;;
54945;SDS011;40846;44.788;20.486;2023-04-24T07:44:06;16.77;;;7.88;;
54945;SDS011;40846;44.788;20.486;2023-04-24T07:46:32;9.57;;;6.05;;
54945;SDS011;40846;44.788;20.486;2023-04-24T07:48:58;16.35;;;6.40;;
54945;SDS011;40846;44.788;20.486;2023-04-24T07:51:26;18.80;;;8.38;;
54945;SDS011;40846;44.788;20.486;2023-04-24T07:53:56;15.05;;;6.47;;
54945;SDS011;40846;44.788;20.486;2023-04-24T07:56:22;28.65;;;7.43;;
54945;SDS011;40846;44.788;20.486;2023-04-24T07:58:48;13.30;;;6.57;;
54945;SDS011;40846;44.788;20.486;2023-04-24T08:01:16;11.77;;;6.78;;
54945;SDS011;40846;44.788;20.486;2023-04-24T08:03:42;14.73;;;5.60;;
54945;SDS011;40846;44.788;20.486;2023-04-24T08:06:08;11.55;;;6.07;;
54945;SDS011;40846;44.788;20.486;2023-04-24T08:08:35;13.18;;;5.78;;
54945;SDS011;40846;44.788;20.486;2023-04-24T08:11:01;11.27;;;5.63;;
54945;SDS011;40846;44.788;20.486;2023-04-24T08:13:27;12.95;;;6.00;;
54945;SDS011;40846;44.788;20.486;2023-04-24T08:15:54;13.43;;;6.18;;
54945;SDS011;40846;44.788;20.486;2023-04-24T08:18:20;11.93;;;5.85;;
54945;SDS011;40846;44.788;20.486;2023-04-24T08:20:46;11.02;;;5.68;;
54945;SDS011;40846;44.788;20.486;2023-04-24T08:23:15;16.00;;;6.07;;
54945;SDS011;40846;44.788;20.486;2023-04-24T08:25:41;11.55;;;6.68;;
54945;SDS011;40846;44.788;20.486;2023-04-24T08:28:08;11.63;;;6.80;;
54945;SDS011;40846;44.788;20.486;2023-04-24T08:30:35;10.60;;;5.80;;
54945;SDS011;40846;44.788;20.486;2023-04-24T08:33:03;12.88;;;5.00;;
54945;SDS011;40846;44.788;20.486;2023-04-24T08:35:31;12.73;;;6.18;;
54945;SDS011;40846;44.788;20.486;2023-04-24T08:38:00;12.18;;;5.65;;
54945;SDS011;40846;44.788;20.486;2023-04-24T08:40:28;18.10;;;6.00;;
54945;SDS011;40846;44.788;20.486;2023-04-24T08:42:55;11.88;;;5.32;;
54945;SDS011;40846;44.788;20.486;2023-04-24T08:45:24;11.07;;;5.72;;
54945;SDS011;40846;44.788;20.486;2023-04-24T08:47:51;18.65;;;6.43;;
54945;SDS011;40846;44.788;20.486;2023-04-24T08:50:18;10.23;;;6.55;;
54945;SDS011;40846;44.788;20.486;2023-04-24T08:52:48;15.48;;;6.35;;
54945;SDS011;40846;44.788;20.486;2023-04-24T08:55:24;15.15;;;6.15;;
54945;SDS011;40846;44.788;20.486;2023-04-24T08:58:17;12.02;;;6.22;;
54945;SDS011;40846;44.788;20.486;2023-04-24T09:00:47;19.58;;;6.90;;
54945;SDS011;40846;44.788;20.486;2023-04-24T09:03:16;15.13;;;6.25;;
54945;SDS011;40846;44.788;20.486;2023-04-24T09:05:43;14.80;;;6.90;;
54945;SDS011;40846;44.788;20.486;2023-04-24T09:08:11;15.10;;;6.65;;
54945;SDS011;40846;44.788;20.486;2023-04-24T09:10:52;15.65;;;7.07;;
54945;SDS011;40846;44.788;20.486;2023-04-24T09:13:32;16.23;;;7.30;;
54945;SDS011;40846;44.788;20.486;2023-04-24T09:15:58;11.05;;;6.15;;
54945;SDS011;40846;44.788;20.486;2023-04-24T09:18:36;15.30;;;7.00;;
54945;SDS011;40846;44.788;20.486;2023-04-24T09:21:06;15.13;;;6.95;;
54945;SDS011;40846;44.788;20.486;2023-04-24T09:23:42;13.63;;;6.35;;
54945;SDS011;40846;44.788;20.486;2023-04-24T09:26:09;12.05;;;6.65;;
54945;SDS011;40846;44.788;20.486;2023-04-24T09:28:45;17.42;;;6.75;;
54945;SDS011;40846;44.788;20.486;2023-04-24T09:31:15;12.02;;;7.13;;
54945;SDS011;40846;44.788;20.486;2023-04-24T09:36:40;19.52;;;6.50;;
54945;SDS011;40846;44.788;20.486;2023-04-24T09:39:10;18.02;;;6.97;;
54945;SDS011;40846;44.788;20.486;2023-04-24T09:41:49;16.90;;;6.70;;
54945;SDS011;40846;44.788;20.486;2023-04-24T09:44:18;11.18;;;6.38;;
54945;SDS011;40846;44.788;20.486;2023-04-24T09:49:34;12.98;;;6.47;;
54945;SDS011;40846;44.788;20.486;2023-04-24T09:52:22;15.20;;;7.57;;
54945;SDS011;40846;44.788;20.486;2023-04-24T09:54:55;18.58;;;8.40;;
54945;SDS011;40846;44.788;20.486;2023-04-24T09:57:24;15.02;;;6.50;;
54945;SDS011;40846;44.788;20.486;2023-04-24T09:59:51;15.57;;;6.35;;
54945;SDS011;40846;44.788;20.486;2023-04-24T10:02:19;16.30;;;6.57;;
54945;SDS011;40846;44.788;20.486;2023-04-24T10:04:57;12.88;;;6.03;;
54945;SDS011;40846;44.788;20.486;2023-04-24T10:07:27;15.05;;;6.88;;
54945;SDS011;40846;44.788;20.486;2023-04-24T10:09:59;15.05;;;6.43;;
54945;SDS011;40846;44.788;20.486;2023-04-24T10:12:28;10.38;;;6.07;;
54945;SDS011;40846;44.788;20.486;2023-04-24T10:14:55;13.32;;;6.97;;
54945;SDS011;40846;44.788;20.486;2023-04-24T10:17:22;18.75;;;6.90;;
54945;SDS011;40846;44.788;20.486;2023-04-24T10:19:51;12.02;;;6.75;;
54945;SDS011;40846;44.788;20.486;2023-04-24T10:25:42;16.77;;;6.45;;
54945;SDS011;40846;44.788;20.486;2023-04-24T10:28:14;11.43;;;6.80;;
54945;SDS011;40846;44.788;20.486;2023-04-24T10:30:44;17.13;;;6.43;;
54945;SDS011;40846;44.788;20.486;2023-04-24T10:33:15;13.38;;;5.88;;
54945;SDS011;40846;44.788;20.486;2023-04-24T10:35:45;13.93;;;5.82;;
54945;SDS011;40846;44.788;20.486;2023-04-24T10:38:16;12.30;;;5.43;;
54945;SDS011;40846;44.788;20.486;2023-04-24T10:40:49;12.10;;;5.95;;
54945;SDS011;40846;44.788;20.486;2023-04-24T10:43:16;10.48;;;6.03;;
54945;SDS011;40846;44.788;20.486;2023-04-24T10:45:59;10.95;;;5.75;;
54945;SDS011;40846;44.788;20.486;2023-04-24T10:48:27;14.02;;;6.47;;
54945;SDS011;40846;44.788;20.486;2023-04-24T10:50:56;9.40;;;6.38;;
54945;SDS011;40846;44.788;20.486;2023-04-24T10:53:23;15.57;;;6.43;;
54945;SDS011;40846;44.788;20.486;2023-04-24T10:56:05;16.77;;;6.25;;
54945;SDS011;40846;44.788;20.486;2023-04-24T10:58:36;23.10;;;6.97;;
54945;SDS011;40846;44.788;20.486;2023-04-24T11:01:05;11.20;;;6.18;;
54945;SDS011;40846;44.788;20.486;2023-04-24T11:03:32;8.38;;;5.75;;
54945;SDS011;40846;44.788;20.486;2023-04-24T11:06:03;11.02;;;5.55;;
54945;SDS011;40846;44.788;20.486;2023-04-24T11:08:48;11.18;;;5.78;;
54945;SDS011;40846;44.788;20.486;2023-04-24T11:11:17;11.45;;;6.55;;
54945;SDS011;40846;44.788;20.486;2023-04-24T11:19:23;16.85;;;7.68;;
54945;SDS011;40846;44.788;20.486;2023-04-24T11:24:29;12.25;;;5.95;;
54945;SDS011;40846;44.788;20.486;2023-04-24T11:34:50;10.93;;;6.63;;
54945;SDS011;40846;44.788;20.486;2023-04-24T11:37:17;15.98;;;6.25;;
54945;SDS011;40846;44.788;20.486;2023-04-24T11:39:43;10.88;;;6.07;;
54945;SDS011;40846;44.788;20.486;2023-04-24T11:42:09;12.18;;;6.20;;
54945;SDS011;40846;44.788;20.486;2023-04-24T11:44:38;13.98;;;6.40;;
54945;SDS011;40846;44.788;20.486;2023-04-24T11:47:08;10.75;;;6.40;;
54945;SDS011;40846;44.788;20.486;2023-04-24T11:49:37;9.93;;;5.18;;
54945;SDS011;40846;44.788;20.486;2023-04-24T11:52:07;15.02;;;5.70;;
54945;SDS011;40846;44.788;20.486;2023-04-24T11:54:35;13.65;;;6.97;;
54945;SDS011;40846;44.788;20.486;2023-04-24T11:57:08;10.90;;;6.00;;
54945;SDS011;40846;44.788;20.486;2023-04-24T11:59:56;18.33;;;6.07;;
54945;SDS011;40846;44.788;20.486;2023-04-24T12:04:51;10.75;;;6.53;;
54945;SDS011;40846;44.788;20.486;2023-04-24T12:07:18;13.05;;;5.88;;
54945;SDS011;40846;44.788;20.486;2023-04-24T12:09:59;8.95;;;5.70;;
54945;SDS011;40846;44.788;20.486;2023-04-24T12:12:33;10.90;;;5.50;;
54945;SDS011;40846;44.788;20.486;2023-04-24T12:15:09;10.43;;;5.97;;
54945;SDS011;40846;44.788;20.486;2023-04-24T12:17:44;11.60;;;5.57;;
54945;SDS011;40846;44.788;20.486;2023-04-24T12:23:03;12.93;;;6.47;;
54945;SDS011;40846;44.788;20.486;2023-04-24T12:25:29;12.80;;;6.57;;
54945;SDS011;40846;44.788;20.486;2023-04-24T12:30:29;13.32;;;6.68;;
54945;SDS011;40846;44.788;20.486;2023-04-24T12:32:57;12.43;;;6.60;;
54945;SDS011;40846;44.788;20.486;2023-04-24T12:35:23;11.00;;;7.63;;
54945;SDS011;40846;44.788;20.486;2023-04-24T12:37:50;14.13;;;6.18;;
54945;SDS011;40846;44.788;20.486;2023-04-24T12:40:16;12.35;;;6.75;;
54945;SDS011;40846;44.788;20.486;2023-04-24T12:42:46;15.80;;;7.82;;
54945;SDS011;40846;44.788;20.486;2023-04-24T12:45:13;12.93;;;6.80;;
54945;SDS011;40846;44.788;20.486;2023-04-24T12:47:40;13.48;;;6.30;;
54945;SDS011;40846;44.788;20.486;2023-04-24T12:50:10;11.25;;;6.70;;
54945;SDS011;40846;44.788;20.486;2023-04-24T12:52:36;20.35;;;6.50;;
54945;SDS011;40846;44.788;20.486;2023-04-24T12:55:02;12.45;;;6.90;;
54945;SDS011;40846;44.788;20.486;2023-04-24T12:57:30;13.77;;;6.55;;
54945;SDS011;40846;44.788;20.486;2023-04-24T12:59:59;12.55;;;6.88;;
54945;SDS011;40846;44.788;20.486;2023-04-24T13:02:26;10.15;;;6.30;;
54945;SDS011;40846;44.788;20.486;2023-04-24T13:04:53;10.75;;;6.22;;
54945;SDS011;40846;44.788;20.486;2023-04-24T13:07:19;12.43;;;7.00;;
54945;SDS011;40846;44.788;20.486;2023-04-24T13:09:48;10.65;;;7.63;;
54945;SDS011;40846;44.788;20.486;2023-04-24T13:12:17;13.20;;;6.95;;
54945;SDS011;40846;44.788;20.486;2023-04-24T13:14:47;13.45;;;7.18;;
54945;SDS011;40846;44.788;20.486;2023-04-24T13:17:18;11.88;;;7.53;;
54945;SDS011;40846;44.788;20.486;2023-04-24T13:19:56;10.05;;;6.38;;
54945;SDS011;40846;44.788;20.486;2023-04-24T13:25:30;14.32;;;6.85;;
54945;SDS011;40846;44.788;20.486;2023-04-24T13:27:59;16.35;;;6.47;;
54945;SDS011;40846;44.788;20.486;2023-04-24T13:30:27;9.52;;;5.88;;
54945;SDS011;40846;44.788;20.486;2023-04-24T13:32:56;10.82;;;6.18;;
54945;SDS011;40846;44.788;20.486;2023-04-24T13:35:43;14.63;;;6.47;;
54945;SDS011;40846;44.788;20.486;2023-04-24T13:38:30;9.40;;;5.43;;
54945;SDS011;40846;44.788;20.486;2023-04-24T13:44:13;14.68;;;5.03;;
54945;SDS011;40846;44.788;20.486;2023-04-24T13:46:39;9.77;;;5.68;;
54945;SDS011;40846;44.788;20.486;2023-04-24T13:49:05;12.90;;;5.47;;
54945;SDS011;40846;44.788;20.486;2023-04-24T13:51:34;15.73;;;5.72;;
54945;SDS011;40846;44.788;20.486;2023-04-24T13:54:03;15.68;;;5.60;;
54945;SDS011;40846;44.788;20.486;2023-04-24T13:56:32;11.23;;;5.37;;
54945;SDS011;40846;44.788;20.486;2023-04-24T13:58:58;8.90;;;5.30;;
54945;SDS011;40846;44.788;20.486;2023-04-24T14:01:24;12.25;;;4.32;;
54945;SDS011;40846;44.788;20.486;2023-04-24T14:03:54;15.18;;;5.55;;
54945;SDS011;40846;44.788;20.486;2023-04-24T14:06:31;11.05;;;5.53;;
54945;SDS011;40846;44.788;20.486;2023-04-24T14:09:02;12.05;;;5.53;;
54945;SDS011;40846;44.788;20.486;2023-04-24T14:11:29;10.38;;;4.95;;
54945;SDS011;40846;44.788;20.486;2023-04-24T14:13:55;8.45;;;5.35;;
54945;SDS011;40846;44.788;20.486;2023-04-24T14:16:27;11.43;;;5.32;;
54945;SDS011;40846;44.788;20.486;2023-04-24T14:18:53;9.77;;;5.45;;
54945;SDS011;40846;44.788;20.486;2023-04-24T14:21:20;6.22;;;4.13;;
54945;SDS011;40846;44.788;20.486;2023-04-24T14:23:46;8.70;;;4.78;;
54945;SDS011;40846;44.788;20.486;2023-04-24T14:26:21;9.07;;;4.60;;
54945;SDS011;40846;44.788;20.486;2023-04-24T14:28:47;8.55;;;4.35;;
54945;SDS011;40846;44.788;20.486;2023-04-24T14:31:13;7.70;;;3.55;;
54945;SDS011;40846;44.788;20.486;2023-04-24T14:33:42;9.50;;;3.08;;
54945;SDS011;40846;44.788;20.486;2023-04-24T14:36:17;8.18;;;3.22;;
54945;SDS011;40846;44.788;20.486;2023-04-24T14:38:44;5.32;;;3.45;;
54945;SDS011;40846;44.788;20.486;2023-04-24T14:41:10;8.15;;;3.15;;
54945;SDS011;40846;44.788;20.486;2023-04-24T14:43:36;11.05;;;3.45;;
54945;SDS011;40846;44.788;20.486;2023-04-24T14:46:03;5.97;;;3.20;;
54945;SDS011;40846;44.788;20.486;2023-04-24T14:48:32;6.40;;;2.80;;
54945;SDS011;40846;44.788;20.486;2023-04-24T14:51:01;8.05;;;4.13;;
54945;SDS011;40846;44.788;20.486;2023-04-24T14:53:27;7.80;;;3.88;;
54945;SDS011;40846;44.788;20.486;2023-04-24T14:55:53;6.80;;;3.50;;
54945;SDS011;40846;44.788;20.486;2023-04-24T14:58:22;5.50;;;3.42;;
54945;SDS011;40846;44.788;20.486;2023-04-24T15:00:48;7.85;;;3.65;;
54945;SDS011;40846;44.788;20.486;2023-04-24T15:03:31;8.95;;;3.85;;
54945;SDS011;40846;44.788;20.486;2023-04-24T15:06:08;8.98;;;3.88;;
54945;SDS011;40846;44.788;20.486;2023-04-24T15:08:34;10.40;;;3.72;;
54945;SDS011;40846;44.788;20.486;2023-04-24T15:10:59;10.70;;;3.50;;
54945;SDS011;40846;44.788;20.486;2023-04-24T15:13:26;8.57;;;4.25;;
54945;SDS011;40846;44.788;20.486;2023-04-24T15:16:00;10.18;;;3.28;;
54945;SDS011;40846;44.788;20.486;2023-04-24T15:18:47;7.75;;;3.85;;
54945;SDS011;40846;44.788;20.486;2023-04-24T15:21:13;6.38;;;3.95;;
54945;SDS011;40846;44.788;20.486;2023-04-24T15:23:39;9.32;;;4.35;;
54945;SDS011;40846;44.788;20.486;2023-04-24T15:26:07;6.30;;;3.17;;
54945;SDS011;40846;44.788;20.486;2023-04-24T15:28:40;6.70;;;3.30;;
54945;SDS011;40846;44.788;20.486;2023-04-24T15:31:05;14.38;;;3.65;;